sensor_id;sensor_type;location;lat;lon;timestamp;pressure;altitude;pressure_sealevel;temperature;humidity
71735;BME280;59577;52.122;5.406;2023-03-18T00:00:12;100817.59;;;11.83;75.82
71735;BME280;59577;52.122;5.406;2023-03-18T00:02:39;100826.03;;;11.78;75.96
71735;BME280;59577;52.122;5.406;2023-03-18T00:05:08;100838.31;;;11.72;76.12
71735;BME280;59577;52.122;5.406;2023-03-18T00:07:36;100835.41;;;11.61;76.65
71735;BME280;59577;52.122;5.406;2023-03-18T00:10:05;100841.41;;;11.51;77.19
71735;BME280;59577;52.122;5.406;2023-03-18T00:12:32;100841.97;;;11.41;77.67
71735;BME280;59577;52.122;5.406;2023-03-18T00:14:59;100841.09;;;11.37;77.87
71735;BME280;59577;52.122;5.406;2023-03-18T00:17:28;100853.03;;;11.32;78.33
71735;BME280;59577;52.122;5.406;2023-03-18T00:19:54;100838.53;;;11.24;78.36
71735;BME280;59577;52.122;5.406;2023-03-18T00:22:21;100847.00;;;11.23;78.49
71735;BME280;59577;52.122;5.406;2023-03-18T00:24:48;100841.50;;;11.19;78.67
71735;BME280;59577;52.122;5.406;2023-03-18T00:27:14;100846.84;;;11.16;78.96
71735;BME280;59577;52.122;5.406;2023-03-18T00:29:41;100849.56;;;11.16;79.31
71735;BME280;59577;52.122;5.406;2023-03-18T00:32:08;100846.09;;;11.15;79.32
71735;BME280;59577;52.122;5.406;2023-03-18T00:34:35;100842.19;;;11.13;79.45
71735;BME280;59577;52.122;5.406;2023-03-18T00:37:01;100851.44;;;11.12;79.24
71735;BME280;59577;52.122;5.406;2023-03-18T00:39:28;100849.78;;;11.07;79.34
71735;BME280;59577;52.122;5.406;2023-03-18T00:41:59;100856.63;;;11.01;79.43
71735;BME280;59577;52.122;5.406;2023-03-18T00:44:33;100859.25;;;10.97;79.73
71735;BME280;59577;52.122;5.406;2023-03-18T00:46:59;100860.66;;;10.91;80.02
71735;BME280;59577;52.122;5.406;2023-03-18T00:49:27;100858.28;;;10.89;80.17
71735;BME280;59577;52.122;5.406;2023-03-18T00:51:53;100854.38;;;10.87;80.55
71735;BME280;59577;52.122;5.406;2023-03-18T00:54:20;100853.22;;;10.88;80.40
71735;BME280;59577;52.122;5.406;2023-03-18T00:56:47;100843.91;;;10.85;80.46
71735;BME280;59577;52.122;5.406;2023-03-18T00:59:15;100847.38;;;10.86;80.41
71735;BME280;59577;52.122;5.406;2023-03-18T01:01:42;100842.59;;;10.79;80.78
71735;BME280;59577;52.122;5.406;2023-03-18T01:04:08;100845.16;;;10.72;81.27
71735;BME280;59577;52.122;5.406;2023-03-18T01:06:36;100844.28;;;10.68;81.73
71735;BME280;59577;52.122;5.406;2023-03-18T01:09:04;100842.78;;;10.70;82.15
71735;BME280;59577;52.122;5.406;2023-03-18T01:11:32;100847.84;;;10.72;81.89
71735;BME280;59577;52.122;5.406;2023-03-18T01:13:59;100845.16;;;10.72;81.95
71735;BME280;59577;52.122;5.406;2023-03-18T01:16:26;100840.06;;;10.70;82.07
71735;BME280;59577;52.122;5.406;2023-03-18T01:18:56;100842.44;;;10.72;82.36
71735;BME280;59577;52.122;5.406;2023-03-18T01:21:23;100842.34;;;10.68;81.97
71735;BME280;59577;52.122;5.406;2023-03-18T01:23:50;100851.59;;;10.67;82.24
71735;BME280;59577;52.122;5.406;2023-03-18T01:26:20;100855.81;;;10.65;82.60
71735;BME280;59577;52.122;5.406;2023-03-18T01:28:47;100853.47;;;10.63;82.79
71735;BME280;59577;52.122;5.406;2023-03-18T01:31:14;100851.88;;;10.62;82.68
71735;BME280;59577;52.122;5.406;2023-03-18T01:33:47;100856.16;;;10.63;83.29
71735;BME280;59577;52.122;5.406;2023-03-18T01:36:13;100856.94;;;10.64;83.09
71735;BME280;59577;52.122;5.406;2023-03-18T01:38:40;100853.88;;;10.65;82.93
71735;BME280;59577;52.122;5.406;2023-03-18T01:41:08;100850.81;;;10.67;83.18
71735;BME280;59577;52.122;5.406;2023-03-18T01:43:39;100855.91;;;10.68;82.94
71735;BME280;59577;52.122;5.406;2023-03-18T01:46:45;100858.16;;;10.66;82.82
71735;BME280;59577;52.122;5.406;2023-03-18T01:49:20;100854.50;;;10.59;83.04
71735;BME280;59577;52.122;5.406;2023-03-18T01:52:09;100849.72;;;10.52;83.37
71735;BME280;59577;52.122;5.406;2023-03-18T01:54:43;100846.56;;;10.50;83.92
71735;BME280;59577;52.122;5.406;2023-03-18T01:57:11;100853.22;;;10.52;83.84
71735;BME280;59577;52.122;5.406;2023-03-18T01:59:40;100856.78;;;10.57;83.64
71735;BME280;59577;52.122;5.406;2023-03-18T02:02:10;100854.84;;;10.57;83.70
71735;BME280;59577;52.122;5.406;2023-03-18T02:04:42;100852.06;;;10.53;83.20
71735;BME280;59577;52.122;5.406;2023-03-18T02:07:15;100858.97;;;10.51;83.44
71735;BME280;59577;52.122;5.406;2023-03-18T02:09:42;100848.84;;;10.48;83.60
71735;BME280;59577;52.122;5.406;2023-03-18T02:12:10;100845.63;;;10.42;83.80
71735;BME280;59577;52.122;5.406;2023-03-18T02:14:38;100850.59;;;10.40;83.83
71735;BME280;59577;52.122;5.406;2023-03-18T02:17:09;100855.22;;;10.40;84.24
71735;BME280;59577;52.122;5.406;2023-03-18T02:19:49;100864.81;;;10.37;84.54
71735;BME280;59577;52.122;5.406;2023-03-18T02:27:56;100867.19;;;10.39;84.52
71735;BME280;59577;52.122;5.406;2023-03-18T02:30:38;100871.09;;;10.41;84.39
71735;BME280;59577;52.122;5.406;2023-03-18T02:33:06;100866.50;;;10.42;84.33
71735;BME280;59577;52.122;5.406;2023-03-18T02:35:35;100857.22;;;10.43;84.65
71735;BME280;59577;52.122;5.406;2023-03-18T02:38:02;100862.91;;;10.38;84.48
71735;BME280;59577;52.122;5.406;2023-03-18T02:40:32;100868.22;;;10.34;85.22
71735;BME280;59577;52.122;5.406;2023-03-18T02:43:27;100868.31;;;10.38;85.51
71735;BME280;59577;52.122;5.406;2023-03-18T02:48:22;100872.50;;;10.35;85.18
71735;BME280;59577;52.122;5.406;2023-03-18T02:50:51;100870.94;;;10.34;85.53
71735;BME280;59577;52.122;5.406;2023-03-18T02:53:19;100867.44;;;10.33;85.47
71735;BME280;59577;52.122;5.406;2023-03-18T02:55:46;100869.09;;;10.38;85.58
71735;BME280;59577;52.122;5.406;2023-03-18T02:58:12;100864.13;;;10.40;85.70
71735;BME280;59577;52.122;5.406;2023-03-18T03:00:39;100870.22;;;10.37;85.54
71735;BME280;59577;52.122;5.406;2023-03-18T03:03:06;100870.16;;;10.33;85.76
71735;BME280;59577;52.122;5.406;2023-03-18T03:05:33;100865.84;;;10.32;85.89
71735;BME280;59577;52.122;5.406;2023-03-18T03:08:00;100869.38;;;10.33;85.99
71735;BME280;59577;52.122;5.406;2023-03-18T03:10:28;100874.06;;;10.36;85.72
71735;BME280;59577;52.122;5.406;2023-03-18T03:12:55;100873.28;;;10.35;85.65
71735;BME280;59577;52.122;5.406;2023-03-18T03:15:22;100883.34;;;10.35;85.67
71735;BME280;59577;52.122;5.406;2023-03-18T03:17:49;100878.50;;;10.28;85.84
71735;BME280;59577;52.122;5.406;2023-03-18T03:20:16;100870.72;;;10.27;86.51
71735;BME280;59577;52.122;5.406;2023-03-18T03:22:43;100879.19;;;10.25;86.16
71735;BME280;59577;52.122;5.406;2023-03-18T03:25:11;100887.66;;;10.24;86.67
71735;BME280;59577;52.122;5.406;2023-03-18T03:27:40;100888.72;;;10.19;86.96
71735;BME280;59577;52.122;5.406;2023-03-18T03:30:09;100890.16;;;10.16;87.04
71735;BME280;59577;52.122;5.406;2023-03-18T03:32:36;100898.28;;;10.16;87.21
71735;BME280;59577;52.122;5.406;2023-03-18T03:35:05;100893.22;;;10.15;87.76
71735;BME280;59577;52.122;5.406;2023-03-18T03:37:33;100898.63;;;10.15;87.60
71735;BME280;59577;52.122;5.406;2023-03-18T03:40:00;100899.41;;;10.15;87.67
71735;BME280;59577;52.122;5.406;2023-03-18T03:42:26;100905.72;;;10.20;87.75
71735;BME280;59577;52.122;5.406;2023-03-18T03:44:53;100904.56;;;10.21;87.19
71735;BME280;59577;52.122;5.406;2023-03-18T03:47:20;100901.84;;;10.21;87.29
71735;BME280;59577;52.122;5.406;2023-03-18T03:49:46;100902.66;;;10.21;87.52
71735;BME280;59577;52.122;5.406;2023-03-18T03:52:13;100906.16;;;10.22;87.32
71735;BME280;59577;52.122;5.406;2023-03-18T03:54:39;100907.34;;;10.24;87.45
71735;BME280;59577;52.122;5.406;2023-03-18T03:57:07;100903.09;;;10.23;87.35
71735;BME280;59577;52.122;5.406;2023-03-18T03:59:37;100902.75;;;10.25;87.76
71735;BME280;59577;52.122;5.406;2023-03-18T04:02:04;100903.88;;;10.24;87.80
71735;BME280;59577;52.122;5.406;2023-03-18T04:04:30;100915.47;;;10.24;87.82
71735;BME280;59577;52.122;5.406;2023-03-18T04:06:58;100917.84;;;10.26;87.90
71735;BME280;59577;52.122;5.406;2023-03-18T04:09:24;100914.78;;;10.27;87.94
71735;BME280;59577;52.122;5.406;2023-03-18T04:11:50;100915.94;;;10.26;87.59
71735;BME280;59577;52.122;5.406;2023-03-18T04:14:18;100917.50;;;10.27;87.70
71735;BME280;59577;52.122;5.406;2023-03-18T04:16:44;100919.41;;;10.27;88.06
71735;BME280;59577;52.122;5.406;2023-03-18T04:19:11;100913.66;;;10.28;87.94
71735;BME280;59577;52.122;5.406;2023-03-18T04:21:37;100914.78;;;10.27;87.88
71735;BME280;59577;52.122;5.406;2023-03-18T04:24:04;100916.38;;;10.28;88.38
71735;BME280;59577;52.122;5.406;2023-03-18T04:26:35;100918.28;;;10.28;88.34
71735;BME280;59577;52.122;5.406;2023-03-18T04:29:02;100926.41;;;10.28;88.70
71735;BME280;59577;52.122;5.406;2023-03-18T04:31:29;100919.31;;;10.23;88.93
71735;BME280;59577;52.122;5.406;2023-03-18T04:33:57;100923.97;;;10.23;89.37
71735;BME280;59577;52.122;5.406;2023-03-18T04:36:26;100919.25;;;10.20;89.58
71735;BME280;59577;52.122;5.406;2023-03-18T04:38:53;100918.81;;;10.18;89.96
71735;BME280;59577;52.122;5.406;2023-03-18T04:41:20;100919.16;;;10.16;90.19
71735;BME280;59577;52.122;5.406;2023-03-18T04:43:47;100914.84;;;10.15;89.94
71735;BME280;59577;52.122;5.406;2023-03-18T04:46:23;100911.38;;;10.14;90.26
71735;BME280;59577;52.122;5.406;2023-03-18T04:48:50;100914.41;;;10.13;90.68
71735;BME280;59577;52.122;5.406;2023-03-18T04:51:25;100921.75;;;10.12;90.71
71735;BME280;59577;52.122;5.406;2023-03-18T04:53:52;100924.47;;;10.12;91.03
71735;BME280;59577;52.122;5.406;2023-03-18T04:56:19;100919.41;;;10.11;91.55
71735;BME280;59577;52.122;5.406;2023-03-18T04:58:45;100923.56;;;10.08;91.57
71735;BME280;59577;52.122;5.406;2023-03-18T05:01:12;100925.50;;;10.08;91.97
71735;BME280;59577;52.122;5.406;2023-03-18T05:03:40;100925.41;;;10.04;92.27
71735;BME280;59577;52.122;5.406;2023-03-18T05:06:17;100928.09;;;10.04;92.70
71735;BME280;59577;52.122;5.406;2023-03-18T05:08:46;100919.56;;;10.02;92.78
71735;BME280;59577;52.122;5.406;2023-03-18T05:11:13;100928.78;;;10.01;92.60
71735;BME280;59577;52.122;5.406;2023-03-18T05:13:40;100941.53;;;10.01;93.05
71735;BME280;59577;52.122;5.406;2023-03-18T05:16:07;100939.16;;;9.99;93.11
71735;BME280;59577;52.122;5.406;2023-03-18T05:18:36;100941.44;;;9.97;93.51
71735;BME280;59577;52.122;5.406;2023-03-18T05:21:03;100941.78;;;9.95;93.63
71735;BME280;59577;52.122;5.406;2023-03-18T05:23:32;100949.88;;;9.95;93.27
71735;BME280;59577;52.122;5.406;2023-03-18T05:25:59;100947.09;;;9.92;93.61
71735;BME280;59577;52.122;5.406;2023-03-18T05:28:26;100961.72;;;9.91;93.86
71735;BME280;59577;52.122;5.406;2023-03-18T05:30:53;100962.50;;;9.91;94.38
71735;BME280;59577;52.122;5.406;2023-03-18T05:33:26;100968.72;;;9.92;94.02
71735;BME280;59577;52.122;5.406;2023-03-18T05:35:59;100968.72;;;9.92;94.41
71735;BME280;59577;52.122;5.406;2023-03-18T05:38:26;100972.19;;;9.92;94.36
71735;BME280;59577;52.122;5.406;2023-03-18T05:40:52;100961.38;;;9.92;94.51
71735;BME280;59577;52.122;5.406;2023-03-18T05:43:20;100965.66;;;9.93;94.70
71735;BME280;59577;52.122;5.406;2023-03-18T05:45:47;100966.13;;;9.95;94.59
71735;BME280;59577;52.122;5.406;2023-03-18T05:48:16;100975.78;;;9.96;94.54
71735;BME280;59577;52.122;5.406;2023-03-18T05:50:43;100964.97;;;9.96;94.92
71735;BME280;59577;52.122;5.406;2023-03-18T05:53:10;100976.25;;;9.98;95.04
71735;BME280;59577;52.122;5.406;2023-03-18T05:55:38;100980.50;;;10.00;95.17
71735;BME280;59577;52.122;5.406;2023-03-18T05:58:06;100975.53;;;10.02;95.35
71735;BME280;59577;52.122;5.406;2023-03-18T06:00:33;100964.72;;;10.02;95.19
71735;BME280;59577;52.122;5.406;2023-03-18T06:03:00;100979.16;;;10.06;95.19
71735;BME280;59577;52.122;5.406;2023-03-18T06:05:28;100979.47;;;10.04;95.31
71735;BME280;59577;52.122;5.406;2023-03-18T06:07:55;100981.41;;;10.04;95.39
71735;BME280;59577;52.122;5.406;2023-03-18T06:10:23;100982.97;;;10.05;95.45
71735;BME280;59577;52.122;5.406;2023-03-18T06:12:50;100987.25;;;10.06;95.72
71735;BME280;59577;52.122;5.406;2023-03-18T06:15:17;100990.41;;;10.08;95.52
71735;BME280;59577;52.122;5.406;2023-03-18T06:17:44;100991.19;;;10.08;95.44
71735;BME280;59577;52.122;5.406;2023-03-18T06:20:13;100984.66;;;10.09;95.71
71735;BME280;59577;52.122;5.406;2023-03-18T06:22:42;100983.16;;;10.12;95.54
71735;BME280;59577;52.122;5.406;2023-03-18T06:25:19;100991.03;;;10.17;95.74
71735;BME280;59577;52.122;5.406;2023-03-18T06:27:45;100993.50;;;10.22;95.58
71735;BME280;59577;52.122;5.406;2023-03-18T06:30:14;100996.63;;;10.24;95.33
71735;BME280;59577;52.122;5.406;2023-03-18T06:32:53;101010.16;;;10.24;95.46
71735;BME280;59577;52.122;5.406;2023-03-18T06:35:19;101017.06;;;10.22;95.46
71735;BME280;59577;52.122;5.406;2023-03-18T06:37:47;101023.59;;;10.21;95.63
71735;BME280;59577;52.122;5.406;2023-03-18T06:40:15;101026.66;;;10.19;95.52
71735;BME280;59577;52.122;5.406;2023-03-18T06:42:45;101025.94;;;10.22;95.62
71735;BME280;59577;52.122;5.406;2023-03-18T06:45:11;101028.31;;;10.24;95.62
71735;BME280;59577;52.122;5.406;2023-03-18T06:47:38;101027.63;;;10.27;95.75
71735;BME280;59577;52.122;5.406;2023-03-18T06:50:06;101031.72;;;10.33;96.01
71735;BME280;59577;52.122;5.406;2023-03-18T06:52:34;101020.25;;;10.40;95.69
71735;BME280;59577;52.122;5.406;2023-03-18T06:55:02;101027.34;;;10.44;95.62
71735;BME280;59577;52.122;5.406;2023-03-18T06:57:29;101030.16;;;10.48;95.68
71735;BME280;59577;52.122;5.406;2023-03-18T06:59:55;101027.19;;;10.53;95.39
71735;BME280;59577;52.122;5.406;2023-03-18T07:02:22;101032.38;;;10.58;95.73
71735;BME280;59577;52.122;5.406;2023-03-18T07:04:55;101038.22;;;10.60;95.24
71735;BME280;59577;52.122;5.406;2023-03-18T07:07:21;101033.22;;;10.62;95.16
71735;BME280;59577;52.122;5.406;2023-03-18T07:09:49;101035.34;;;10.69;95.28
71735;BME280;59577;52.122;5.406;2023-03-18T07:12:19;101041.31;;;10.75;95.26
71735;BME280;59577;52.122;5.406;2023-03-18T07:14:45;101044.63;;;10.84;95.01
71735;BME280;59577;52.122;5.406;2023-03-18T07:17:12;101048.63;;;11.54;94.68
71735;BME280;59577;52.122;5.406;2023-03-18T07:19:40;101053.19;;;11.50;92.73
71735;BME280;59577;52.122;5.406;2023-03-18T07:22:07;101053.53;;;11.48;92.35
71735;BME280;59577;52.122;5.406;2023-03-18T07:24:33;101057.03;;;11.33;92.22
71735;BME280;59577;52.122;5.406;2023-03-18T07:27:01;101058.19;;;11.32;92.26
71735;BME280;59577;52.122;5.406;2023-03-18T07:29:28;101059.38;;;11.50;92.42
71735;BME280;59577;52.122;5.406;2023-03-18T07:31:55;101059.28;;;12.56;91.23
71735;BME280;59577;52.122;5.406;2023-03-18T07:34:22;101059.47;;;14.54;86.95
71735;BME280;59577;52.122;5.406;2023-03-18T07:36:49;101064.25;;;16.27;78.36
71735;BME280;59577;52.122;5.406;2023-03-18T07:39:19;101073.75;;;17.52;71.98
71735;BME280;59577;52.122;5.406;2023-03-18T07:41:47;101070.94;;;16.55;71.04
71735;BME280;59577;52.122;5.406;2023-03-18T07:44:16;101071.81;;;15.23;73.25
71735;BME280;59577;52.122;5.406;2023-03-18T07:46:43;101072.16;;;14.73;75.99
71735;BME280;59577;52.122;5.406;2023-03-18T07:49:10;101079.28;;;14.51;75.53
71735;BME280;59577;52.122;5.406;2023-03-18T07:51:37;101084.16;;;14.04;77.36
71735;BME280;59577;52.122;5.406;2023-03-18T07:54:04;101089.31;;;13.56;78.85
71735;BME280;59577;52.122;5.406;2023-03-18T07:56:32;101077.19;;;13.27;80.62
71735;BME280;59577;52.122;5.406;2023-03-18T07:59:00;101084.75;;;13.37;81.41
71735;BME280;59577;52.122;5.406;2023-03-18T08:01:26;101090.41;;;13.28;80.96
71735;BME280;59577;52.122;5.406;2023-03-18T08:03:57;101078.50;;;13.33;81.52
71735;BME280;59577;52.122;5.406;2023-03-18T08:06:24;101079.38;;;13.94;79.46
71735;BME280;59577;52.122;5.406;2023-03-18T08:08:51;101072.78;;;16.19;75.62
71735;BME280;59577;52.122;5.406;2023-03-18T08:11:18;101079.50;;;18.15;69.69
71735;BME280;59577;52.122;5.406;2023-03-18T08:13:44;101071.06;;;20.28;62.28
71735;BME280;59577;52.122;5.406;2023-03-18T08:16:11;101074.63;;;21.31;57.00
71735;BME280;59577;52.122;5.406;2023-03-18T08:18:37;101068.94;;;21.41;55.11
71735;BME280;59577;52.122;5.406;2023-03-18T08:21:04;101081.09;;;22.28;55.39
71735;BME280;59577;52.122;5.406;2023-03-18T08:23:31;101073.44;;;24.09;49.61
71735;BME280;59577;52.122;5.406;2023-03-18T08:25:58;101073.91;;;24.33;47.27
71735;BME280;59577;52.122;5.406;2023-03-18T08:28:25;101076.16;;;24.64;46.59
71735;BME280;59577;52.122;5.406;2023-03-18T08:30:56;101072.69;;;24.09;45.39
71735;BME280;59577;52.122;5.406;2023-03-18T08:33:25;101068.84;;;23.60;45.43
71735;BME280;59577;52.122;5.406;2023-03-18T08:35:53;101067.09;;;23.96;44.91
71735;BME280;59577;52.122;5.406;2023-03-18T08:38:22;101058.31;;;24.14;44.05
71735;BME280;59577;52.122;5.406;2023-03-18T08:40:50;101064.78;;;23.03;44.80
71735;BME280;59577;52.122;5.406;2023-03-18T08:43:16;101069.78;;;22.91;45.60
71735;BME280;59577;52.122;5.406;2023-03-18T08:45:43;101073.50;;;22.68;46.70
71735;BME280;59577;52.122;5.406;2023-03-18T08:48:10;101070.88;;;22.45;47.94
71735;BME280;59577;52.122;5.406;2023-03-18T08:50:36;101068.19;;;21.61;48.77
71735;BME280;59577;52.122;5.406;2023-03-18T08:53:05;101070.97;;;21.37;49.60
71735;BME280;59577;52.122;5.406;2023-03-18T08:55:34;101070.16;;;21.40;49.61
71735;BME280;59577;52.122;5.406;2023-03-18T08:58:03;101078.28;;;20.46;51.19
71735;BME280;59577;52.122;5.406;2023-03-18T09:00:35;101074.22;;;20.85;52.30
71735;BME280;59577;52.122;5.406;2023-03-18T09:03:04;101069.22;;;21.91;51.34
71735;BME280;59577;52.122;5.406;2023-03-18T09:05:31;101071.50;;;23.35;49.53
71735;BME280;59577;52.122;5.406;2023-03-18T09:07:58;101074.66;;;23.50;45.52
71735;BME280;59577;52.122;5.406;2023-03-18T09:10:26;101071.97;;;23.92;44.38
71735;BME280;59577;52.122;5.406;2023-03-18T09:13:01;101080.66;;;21.89;46.24
71735;BME280;59577;52.122;5.406;2023-03-18T09:15:28;101083.53;;;20.64;51.45
71735;BME280;59577;52.122;5.406;2023-03-18T09:17:55;101084.94;;;19.42;52.14
71735;BME280;59577;52.122;5.406;2023-03-18T09:20:37;101084.94;;;18.22;56.18
71735;BME280;59577;52.122;5.406;2023-03-18T09:23:04;101091.53;;;19.03;56.56
71735;BME280;59577;52.122;5.406;2023-03-18T09:25:31;101095.56;;;19.40;55.54
71735;BME280;59577;52.122;5.406;2023-03-18T09:27:58;101095.34;;;19.16;56.09
71735;BME280;59577;52.122;5.406;2023-03-18T09:30:26;101100.53;;;19.07;55.35
71735;BME280;59577;52.122;5.406;2023-03-18T09:32:53;101099.84;;;18.14;57.37
71735;BME280;59577;52.122;5.406;2023-03-18T09:35:20;101111.28;;;17.88;59.43
71735;BME280;59577;52.122;5.406;2023-03-18T09:37:46;101107.03;;;18.64;58.95
71735;BME280;59577;52.122;5.406;2023-03-18T09:40:33;101110.41;;;18.97;57.26
71735;BME280;59577;52.122;5.406;2023-03-18T09:43:15;101114.91;;;19.22;56.07
71735;BME280;59577;52.122;5.406;2023-03-18T09:52:03;101110.25;;;19.60;56.24
71735;BME280;59577;52.122;5.406;2023-03-18T09:54:36;101118.41;;;19.75;55.35
71735;BME280;59577;52.122;5.406;2023-03-18T09:57:37;101120.19;;;19.47;55.79
71735;BME280;59577;52.122;5.406;2023-03-18T10:00:19;101128.03;;;18.96;56.42
71735;BME280;59577;52.122;5.406;2023-03-18T10:03:26;101123.19;;;19.14;56.29
71735;BME280;59577;52.122;5.406;2023-03-18T10:06:01;101122.06;;;19.57;55.44
71735;BME280;59577;52.122;5.406;2023-03-18T10:15:12;101122.03;;;19.61;54.86
71735;BME280;59577;52.122;5.406;2023-03-18T10:28:55;101130.88;;;18.74;55.36
71735;BME280;59577;52.122;5.406;2023-03-18T10:31:48;101127.63;;;18.09;57.28
71735;BME280;59577;52.122;5.406;2023-03-18T10:37:45;101119.50;;;18.83;57.09
71735;BME280;59577;52.122;5.406;2023-03-18T10:40:17;101129.16;;;19.06;56.20
71735;BME280;59577;52.122;5.406;2023-03-18T10:42:46;101124.19;;;18.86;55.27
71735;BME280;59577;52.122;5.406;2023-03-18T10:47:55;101126.38;;;19.09;54.49
71735;BME280;59577;52.122;5.406;2023-03-18T10:50:33;101112.91;;;18.66;56.43
71735;BME280;59577;52.122;5.406;2023-03-18T10:53:10;101104.69;;;18.66;56.54
71735;BME280;59577;52.122;5.406;2023-03-18T10:55:59;101114.13;;;18.58;57.24
71735;BME280;59577;52.122;5.406;2023-03-18T10:58:27;101111.28;;;18.83;56.40
71735;BME280;59577;52.122;5.406;2023-03-18T11:01:20;101109.63;;;18.93;56.38
71735;BME280;59577;52.122;5.406;2023-03-18T11:03:57;101110.09;;;19.37;54.50
71735;BME280;59577;52.122;5.406;2023-03-18T11:28:05;101109.38;;;17.27;59.00
71735;BME280;59577;52.122;5.406;2023-03-18T11:33:32;101115.19;;;17.15;60.30
71735;BME280;59577;52.122;5.406;2023-03-18T11:36:22;101116.78;;;17.16;60.93
71735;BME280;59577;52.122;5.406;2023-03-18T11:38:57;101117.97;;;17.18;60.71
71735;BME280;59577;52.122;5.406;2023-03-18T11:41:36;101121.84;;;17.17;60.78
71735;BME280;59577;52.122;5.406;2023-03-18T11:46:55;101126.13;;;16.93;61.85
71735;BME280;59577;52.122;5.406;2023-03-18T11:49:26;101122.19;;;16.87;61.72
71735;BME280;59577;52.122;5.406;2023-03-18T12:42:57;101116.81;;;16.03;63.26
71735;BME280;59577;52.122;5.406;2023-03-18T12:45:44;101113.59;;;15.86;64.28
71735;BME280;59577;52.122;5.406;2023-03-18T12:48:26;101116.28;;;15.83;64.21
71735;BME280;59577;52.122;5.406;2023-03-18T12:51:26;101112.00;;;15.78;64.33
71735;BME280;59577;52.122;5.406;2023-03-18T13:05:03;101118.72;;;15.43;64.14
71735;BME280;59577;52.122;5.406;2023-03-18T13:08:09;101117.53;;;15.40;64.24
71735;BME280;59577;52.122;5.406;2023-03-18T13:17:22;101110.50;;;15.39;65.67
71735;BME280;59577;52.122;5.406;2023-03-18T13:19:50;101109.69;;;15.35;66.80
71735;BME280;59577;52.122;5.406;2023-03-18T13:31:27;101118.31;;;14.59;73.55
71735;BME280;59577;52.122;5.406;2023-03-18T13:37:12;101126.97;;;14.07;78.10
71735;BME280;59577;52.122;5.406;2023-03-18T13:40:17;101116.97;;;14.15;79.66
71735;BME280;59577;52.122;5.406;2023-03-18T13:42:50;101114.59;;;14.44;81.78
71735;BME280;59577;52.122;5.406;2023-03-18T13:47:58;101105.88;;;14.61;82.21
71735;BME280;59577;52.122;5.406;2023-03-18T13:50:33;101119.22;;;14.70;80.79
71735;BME280;59577;52.122;5.406;2023-03-18T13:53:04;101109.56;;;14.76;81.06
71735;BME280;59577;52.122;5.406;2023-03-18T14:17:15;101088.34;;;15.00;78.92
71735;BME280;59577;52.122;5.406;2023-03-18T14:19:52;101085.94;;;14.91;77.63
71735;BME280;59577;52.122;5.406;2023-03-18T15:44:59;101023.94;;;15.33;66.91
71735;BME280;59577;52.122;5.406;2023-03-18T15:53:18;101027.06;;;15.31;66.95
71735;BME280;59577;52.122;5.406;2023-03-18T15:55:54;101026.28;;;15.31;67.63
71735;BME280;59577;52.122;5.406;2023-03-18T15:58:43;101023.94;;;15.33;65.71
71735;BME280;59577;52.122;5.406;2023-03-18T16:01:17;101019.28;;;15.30;65.26
71735;BME280;59577;52.122;5.406;2023-03-18T16:09:23;101021.09;;;15.15;65.60
71735;BME280;59577;52.122;5.406;2023-03-18T16:14:21;101025.78;;;15.14;66.59
71735;BME280;59577;52.122;5.406;2023-03-18T16:16:49;101023.78;;;15.08;66.05
71735;BME280;59577;52.122;5.406;2023-03-18T16:19:24;101026.91;;;15.10;66.54
71735;BME280;59577;52.122;5.406;2023-03-18T16:21:55;101026.50;;;15.08;66.55
71735;BME280;59577;52.122;5.406;2023-03-18T16:24:25;101021.00;;;15.00;66.67
71735;BME280;59577;52.122;5.406;2023-03-18T16:26:56;101029.13;;;14.93;67.04
71735;BME280;59577;52.122;5.406;2023-03-18T16:29:35;101036.84;;;14.88;67.43
71735;BME280;59577;52.122;5.406;2023-03-18T16:32:16;101030.63;;;14.87;68.10
71735;BME280;59577;52.122;5.406;2023-03-18T16:34:55;101035.25;;;14.79;67.80
71735;BME280;59577;52.122;5.406;2023-03-18T16:37:29;101032.38;;;14.69;67.02
71735;BME280;59577;52.122;5.406;2023-03-18T16:39:59;101036.66;;;14.66;67.07
71735;BME280;59577;52.122;5.406;2023-03-18T16:42:26;101038.16;;;14.60;67.58
71735;BME280;59577;52.122;5.406;2023-03-18T16:44:53;101034.22;;;14.57;67.35
71735;BME280;59577;52.122;5.406;2023-03-18T16:47:27;101028.69;;;14.50;67.40
71735;BME280;59577;52.122;5.406;2023-03-18T16:49:57;101025.88;;;14.43;68.00
71735;BME280;59577;52.122;5.406;2023-03-18T16:52:32;101030.88;;;14.37;67.92
71735;BME280;59577;52.122;5.406;2023-03-18T16:55:12;101030.41;;;14.28;68.25
71735;BME280;59577;52.122;5.406;2023-03-18T16:57:46;101036.91;;;14.20;68.58
71735;BME280;59577;52.122;5.406;2023-03-18T17:00:18;101039.19;;;14.14;68.71
71735;BME280;59577;52.122;5.406;2023-03-18T17:02:50;101033.28;;;14.08;68.91
71735;BME280;59577;52.122;5.406;2023-03-18T17:05:19;101038.63;;;14.01;69.25
71735;BME280;59577;52.122;5.406;2023-03-18T17:08:12;101036.19;;;13.92;69.45
71735;BME280;59577;52.122;5.406;2023-03-18T17:10:39;101038.88;;;13.89;69.61
71735;BME280;59577;52.122;5.406;2023-03-18T17:13:19;101045.44;;;13.84;69.30
71735;BME280;59577;52.122;5.406;2023-03-18T17:16:17;101036.75;;;13.75;70.07
71735;BME280;59577;52.122;5.406;2023-03-18T17:18:44;101039.78;;;13.70;70.41
71735;BME280;59577;52.122;5.406;2023-03-18T17:21:11;101038.19;;;13.65;70.43
71735;BME280;59577;52.122;5.406;2023-03-18T17:23:37;101034.19;;;13.59;70.89
71735;BME280;59577;52.122;5.406;2023-03-18T17:26:30;101031.78;;;13.54;70.81
71735;BME280;59577;52.122;5.406;2023-03-18T17:28:57;101031.69;;;13.47;71.52
71735;BME280;59577;52.122;5.406;2023-03-18T17:31:25;101027.72;;;13.41;71.79
71735;BME280;59577;52.122;5.406;2023-03-18T17:33:59;101026.88;;;13.37;71.70